Time;durP1;ratioP1;P1;durP2;ratioP2;P2;SDS_P1;SDS_P2;PMS_P1;PMS_P2;Temp;Humidity;BMP_temperature;BMP_pressure;BME280_temperature;BME280_humidity;BME280_pressure;Samples;Min_cycle;Max_cycle;Signal;HPM_P1;HPM_P2
2023/06/13 00:02:02;;;;;;;7.77;2.40;;;;;;;14.23;100.00;101685.06;7381194;19;20441;-43
2023/06/13 00:04:32;;;;;;;5.17;2.27;;;;;;;14.17;100.00;101680.50;7405418;19;21206;-43
2023/06/13 00:07:07;;;;;;;5.67;2.77;;;;;;;14.17;100.00;101683.09;7384481;19;20434;-42
2023/06/13 00:09:37;;;;;;;6.57;2.13;;;;;;;14.16;100.00;101683.91;7411430;19;20394;-43
2023/06/13 00:12:09;;;;;;;4.70;2.17;;;;;;;14.17;100.00;101683.09;7386975;19;20901;-42
2023/06/13 00:14:39;;;;;;;5.40;2.03;;;;;;;14.18;100.00;101684.00;7408101;19;20419;-42
2023/06/13 00:17:08;;;;;;;9.83;2.43;;;;;;;14.18;100.00;101681.41;7385054;19;20830;-42
2023/06/13 00:19:38;;;;;;;5.37;2.27;;;;;;;14.13;100.00;101678.63;7409200;19;20399;-43
2023/06/13 00:22:13;;;;;;;6.80;2.53;;;;;;;14.03;100.00;101672.16;7385591;19;20445;-42
2023/06/13 00:24:44;;;;;;;5.13;2.23;;;;;;;14.07;100.00;101678.34;7412616;19;21269;-42
2023/06/13 00:27:13;;;;;;;8.10;2.10;;;;;;;14.04;100.00;101673.94;7384902;19;20529;-42
2023/06/13 00:29:43;;;;;;;4.63;1.93;;;;;;;13.98;100.00;101670.16;7408945;19;20514;-43
2023/06/13 00:32:12;;;;;;;5.80;2.20;;;;;;;13.88;100.00;101672.38;7385255;19;20451;-42
2023/06/13 00:34:43;;;;;;;8.97;2.77;;;;;;;13.86;100.00;101673.16;7410091;19;20414;-43
2023/06/13 00:37:16;;;;;;;4.60;2.07;;;;;;;13.85;100.00;101661.88;7384452;19;20432;-43
2023/06/13 00:39:46;;;;;;;4.70;2.10;;;;;;;13.81;100.00;101665.16;7408259;19;20416;-43
2023/06/13 00:42:16;;;;;;;6.67;2.47;;;;;;;13.79;100.00;101658.13;7384351;19;20444;-43
2023/06/13 00:44:45;;;;;;;5.50;2.07;;;;;;;13.73;100.00;101661.34;7407580;19;20392;-43
2023/06/13 00:47:15;;;;;;;6.20;2.53;;;;;;;13.64;100.00;101652.34;7381806;19;20426;-43
2023/06/13 00:49:46;;;;;;;7.70;2.70;;;;;;;13.59;100.00;101653.84;7410107;19;20930;-43
2023/06/13 00:52:18;;;;;;;6.27;2.40;;;;;;;13.50;100.00;101649.16;7383218;19;20861;-43
2023/06/13 00:54:47;;;;;;;7.23;2.33;;;;;;;13.40;100.00;101646.97;7406272;19;20406;-40
2023/06/13 00:57:17;;;;;;;4.63;1.97;;;;;;;13.35;100.00;101646.72;7381642;19;20556;-43
2023/06/13 00:59:47;;;;;;;7.40;2.83;;;;;;;13.33;100.00;101638.00;7408556;19;20428;-42
2023/06/13 01:02:20;;;;;;;7.10;2.27;;;;;;;13.23;100.00;101633.25;7382304;19;20459;-42
2023/06/13 01:04:53;;;;;;;7.63;2.40;;;;;;;13.20;100.00;101627.91;7406097;19;20421;-43
2023/06/13 01:07:29;;;;;;;7.93;2.23;;;;;;;13.12;100.00;101626.69;7381451;19;20458;-43
2023/06/13 01:09:59;;;;;;;6.63;2.20;;;;;;;13.02;100.00;101612.44;7406995;19;20410;-42
2023/06/13 01:12:35;;;;;;;5.30;2.20;;;;;;;12.92;100.00;101605.97;7379679;19;20442;-44
2023/06/13 01:15:08;;;;;;;5.50;2.40;;;;;;;12.83;100.00;101596.94;7409086;19;20832;-42
2023/06/13 01:17:41;;;;;;;5.93;2.60;;;;;;;12.78;100.00;101598.41;7380463;19;20557;-43
2023/06/13 01:20:14;;;;;;;6.00;2.50;;;;;;;12.80;100.00;101581.25;7404674;19;20429;-42
2023/06/13 01:22:52;;;;;;;7.37;2.33;;;;;;;12.89;100.00;101582.50;7383403;19;20459;-43
2023/06/13 01:25:37;;;;;;;5.20;2.43;;;;;;;12.86;100.00;101582.38;7404987;19;20408;-43
2023/06/13 01:28:13;;;;;;;5.90;2.43;;;;;;;12.79;100.00;101582.09;7381426;19;20474;-43
2023/06/13 01:30:43;;;;;;;7.43;2.37;;;;;;;12.75;100.00;101587.94;7380228;19;20450;-42
2023/06/13 01:33:13;;;;;;;4.97;2.00;;;;;;;12.75;100.00;101579.25;7399839;19;20399;-43
2023/06/13 01:35:43;;;;;;;6.53;2.30;;;;;;;12.74;100.00;101574.91;7379725;19;21276;-43
2023/06/13 01:38:13;;;;;;;5.20;2.10;;;;;;;12.66;100.00;101570.25;7399396;19;21405;-43
2023/06/13 01:40:42;;;;;;;6.23;2.63;;;;;;;12.55;100.00;101559.41;7378441;19;20466;-44
2023/06/13 01:43:14;;;;;;;6.50;2.50;;;;;;;12.52;100.00;101546.31;7400330;19;20403;-42
2023/06/13 01:45:44;;;;;;;6.80;3.13;;;;;;;12.46;100.00;101532.22;7380592;19;20465;-42
2023/06/13 01:48:19;;;;;;;7.57;2.80;;;;;;;12.41;100.00;101529.44;7402015;19;20446;-43
2023/06/13 01:50:51;;;;;;;5.43;2.40;;;;;;;12.33;100.00;101520.41;7379748;19;20482;-43
2023/06/13 01:53:25;;;;;;;8.10;3.00;;;;;;;12.34;100.00;101509.22;7402229;19;21067;-42
2023/06/13 01:55:59;;;;;;;5.10;2.60;;;;;;;12.25;100.00;101500.25;7378549;19;20381;-43
2023/06/13 01:58:35;;;;;;;7.33;2.50;;;;;;;12.22;100.00;101491.44;7401511;19;20409;-44
2023/06/13 02:01:06;;;;;;;5.50;2.83;;;;;;;12.20;100.00;101483.59;7379958;19;20442;-43
2023/06/13 02:03:36;;;;;;;6.90;2.60;;;;;;;12.23;100.00;101476.00;7403047;19;20778;-43
2023/06/13 02:06:06;;;;;;;6.23;2.40;;;;;;;12.18;100.00;101479.19;7377742;19;20432;-43
2023/06/13 02:08:36;;;;;;;6.47;2.97;;;;;;;12.18;100.00;101463.66;7402940;19;20396;-44
2023/06/13 02:11:06;;;;;;;6.67;2.93;;;;;;;12.26;100.00;101470.09;7380019;19;21334;-43
2023/06/13 02:13:38;;;;;;;6.23;2.53;;;;;;;12.19;100.00;101461.16;7401393;19;20420;-43
2023/06/13 02:16:08;;;;;;;7.13;3.07;;;;;;;12.16;100.00;101440.31;7379255;19;20539;-45
2023/06/13 02:18:39;;;;;;;7.13;2.97;;;;;;;12.14;100.00;101422.13;7402364;19;20410;-42
2023/06/13 02:21:09;;;;;;;10.43;3.30;;;;;;;12.13;100.00;101415.19;7381087;19;20460;-42
2023/06/13 02:23:39;;;;;;;5.77;2.90;;;;;;;12.10;100.00;101414.19;7402890;19;20409;-42
2023/06/13 02:26:09;;;;;;;7.93;2.80;;;;;;;11.99;100.00;101393.84;7379789;19;20441;-43
2023/06/13 02:28:41;;;;;;;8.70;3.07;;;;;;;11.98;100.00;101389.47;7401477;19;20424;-43
2023/06/13 02:31:11;;;;;;;6.10;2.60;;;;;;;11.97;100.00;101369.63;7377810;19;20897;-42
2023/06/13 02:33:40;;;;;;;10.43;3.47;;;;;;;11.97;100.00;101351.50;7402001;19;20425;-43
2023/06/13 02:36:10;;;;;;;6.67;3.10;;;;;;;12.04;100.00;101334.59;7379215;19;20439;-42
2023/06/13 02:38:39;;;;;;;5.80;3.00;;;;;;;12.07;100.00;101326.97;7403210;19;20481;-43
2023/06/13 02:41:09;;;;;;;6.60;2.50;;;;;;;12.06;100.00;101313.97;7379250;19;20531;-42
2023/06/13 02:43:41;;;;;;;8.63;3.70;;;;;;;12.05;100.00;101309.63;7402657;19;20436;-43
2023/06/13 02:46:11;;;;;;;8.13;2.90;;;;;;;11.98;100.00;101298.97;7378937;19;20473;-44
2023/06/13 02:48:41;;;;;;;6.77;3.57;;;;;;;11.97;100.00;101302.38;7402027;19;20840;-43
2023/06/13 02:51:10;;;;;;;12.67;3.30;;;;;;;11.89;100.00;101302.03;7377195;19;20486;-43
2023/06/13 02:53:40;;;;;;;7.53;4.00;;;;;;;11.93;100.00;101303.03;7402416;19;20424;-44
2023/06/13 02:56:09;;;;;;;7.37;3.10;;;;;;;11.88;100.00;101302.84;7381079;19;20514;-43
2023/06/13 02:58:42;;;;;;;9.00;3.40;;;;;;;11.89;100.00;101309.78;7402637;19;20414;-43
2023/06/13 03:01:12;;;;;;;8.43;3.00;;;;;;;11.86;100.00;101311.34;7378066;19;20467;-43
2023/06/13 03:03:42;;;;;;;6.87;3.47;;;;;;;11.89;100.00;101326.97;7405423;19;20754;-43
2023/06/13 03:06:12;;;;;;;8.47;3.37;;;;;;;11.82;100.00;101330.09;7379619;19;20428;-44
2023/06/13 03:08:42;;;;;;;5.73;3.03;;;;;;;11.77;100.00;101341.94;7402078;19;20413;-44
2023/06/13 03:11:12;;;;;;;6.60;3.20;;;;;;;11.77;100.00;101352.28;7378060;19;21023;-42
2023/06/13 03:13:45;;;;;;;9.40;3.73;;;;;;;11.79;100.00;101367.03;7402937;19;20413;-43
2023/06/13 03:16:14;;;;;;;9.00;3.37;;;;;;;11.83;100.00;101373.25;7379414;19;20453;-44
2023/06/13 03:18:44;;;;;;;8.97;4.07;;;;;;;11.74;100.00;101379.75;7402777;19;20444;-43
2023/06/13 03:21:13;;;;;;;6.83;3.00;;;;;;;11.78;100.00;101395.44;7378664;19;20806;-44
2023/06/13 03:23:43;;;;;;;6.80;3.50;;;;;;;11.73;100.00;101409.00;7402920;19;20886;-43
2023/06/13 03:26:12;;;;;;;10.87;4.53;;;;;;;11.69;100.00;101427.75;7377273;19;20431;-43
2023/06/13 03:28:45;;;;;;;9.80;3.73;;;;;;;11.68;100.00;101446.69;7401279;19;20428;-44
2023/06/13 03:31:15;;;;;;;7.20;3.67;;;;;;;11.71;100.00;101457.19;7376797;19;20730;-43
2023/06/13 03:33:44;;;;;;;13.07;3.63;;;;;;;11.70;100.00;101470.03;7401869;19;20770;-43
2023/06/13 03:36:14;;;;;;;13.13;3.73;;;;;;;11.73;100.00;101476.22;7376536;19;21175;-43
2023/06/13 03:38:44;;;;;;;7.93;3.87;;;;;;;11.69;100.00;101484.63;7399895;19;20476;-42
2023/06/13 03:41:13;;;;;;;8.43;4.50;;;;;;;11.62;100.00;101500.66;7377450;19;20462;-43
2023/06/13 03:43:45;;;;;;;9.17;4.03;;;;;;;11.66;100.00;101512.03;7401356;19;20414;-42
2023/06/13 03:46:15;;;;;;;13.30;4.50;;;;;;;11.64;100.00;101526.59;7377147;19;20866;-44
2023/06/13 03:48:44;;;;;;;13.53;4.10;;;;;;;11.66;100.00;101540.47;7403513;19;20434;-43
2023/06/13 03:51:14;;;;;;;8.63;4.20;;;;;;;11.61;100.00;101558.34;7377614;19;20436;-44
2023/06/13 03:53:44;;;;;;;6.90;4.20;;;;;;;11.57;100.00;101557.28;7409867;19;20424;-44
2023/06/13 03:56:14;;;;;;;10.67;4.07;;;;;;;11.56;100.00;101577.88;7383100;19;20966;-40
2023/06/13 03:58:46;;;;;;;9.13;4.20;;;;;;;11.65;100.00;101591.28;7410232;19;20438;-42
2023/06/13 04:01:16;;;;;;;8.77;3.87;;;;;;;11.58;100.00;101597.84;7386253;19;20994;-42
2023/06/13 04:03:46;;;;;;;8.97;3.90;;;;;;;11.65;100.00;101613.66;7407670;19;20404;-42
2023/06/13 04:06:16;;;;;;;6.37;3.70;;;;;;;11.67;100.00;101631.03;7383482;19;20503;-43
2023/06/13 04:08:45;;;;;;;9.53;5.00;;;;;;;11.66;100.00;101637.00;7409948;19;20426;-43
2023/06/13 04:11:15;;;;;;;8.03;4.00;;;;;;;11.68;100.00;101637.97;7384177;19;20442;-43
2023/06/13 04:13:47;;;;;;;7.07;3.63;;;;;;;11.68;100.00;101647.41;7410105;19;20423;-43
2023/06/13 04:16:17;;;;;;;9.03;3.80;;;;;;;11.74;100.00;101653.78;7384118;19;20417;-44
2023/06/13 04:18:46;;;;;;;14.27;4.77;;;;;;;11.74;100.00;101663.22;7408140;19;20438;-43
2023/06/13 04:21:16;;;;;;;7.03;3.60;;;;;;;11.80;100.00;101663.53;7383057;19;20459;-42
2023/06/13 04:23:46;;;;;;;6.70;3.80;;;;;;;11.80;100.00;101673.88;7410643;19;20845;-43
2023/06/13 04:26:17;;;;;;;14.83;3.70;;;;;;;11.84;100.00;101673.25;7383765;19;20434;-42
2023/06/13 04:28:50;;;;;;;7.83;4.10;;;;;;;11.83;100.00;101679.22;7407216;19;20498;-43
2023/06/13 04:31:21;;;;;;;8.30;3.40;;;;;;;11.80;100.00;101679.06;7385351;19;20428;-43
2023/06/13 04:33:55;;;;;;;8.07;3.40;;;;;;;11.86;100.00;101674.19;7410240;19;20422;-43
2023/06/13 04:36:28;;;;;;;10.80;4.30;;;;;;;11.90;100.00;101677.84;7384776;19;20444;-42
2023/06/13 04:39:01;;;;;;;7.00;3.60;;;;;;;11.88;100.00;101685.53;7407751;19;20429;-43
2023/06/13 04:41:34;;;;;;;7.03;3.27;;;;;;;11.86;100.00;101688.84;7383235;19;20987;-41
2023/06/13 04:44:09;;;;;;;8.60;3.17;;;;;;;11.91;100.00;101691.66;7408626;19;20421;-40
2023/06/13 04:46:40;;;;;;;6.90;3.70;;;;;;;11.93;100.00;101700.38;7382228;19;20528;-44
2023/06/13 04:49:09;;;;;;;9.77;3.80;;;;;;;11.98;100.00;101692.06;7409290;19;20408;-42
2023/06/13 04:51:40;;;;;;;7.00;3.30;;;;;;;12.06;100.00;101701.94;7384716;19;20443;-44
2023/06/13 04:54:10;;;;;;;13.23;3.70;;;;;;;12.07;100.00;101699.44;7410339;19;20403;-42
2023/06/13 04:56:41;;;;;;;9.00;3.40;;;;;;;12.14;100.00;101705.78;7383015;19;20436;-42
2023/06/13 04:59:13;;;;;;;7.67;3.70;;;;;;;12.24;100.00;101712.31;7408165;19;20972;-43
2023/06/13 05:01:43;;;;;;;7.13;3.13;;;;;;;12.25;100.00;101714.97;7384286;19;20468;-46
2023/06/13 05:04:14;;;;;;;8.40;3.47;;;;;;;12.24;100.00;101707.13;7406586;19;20422;-44
2023/06/13 05:06:43;;;;;;;6.90;3.70;;;;;;;12.38;100.00;101708.72;7383135;19;20471;-43
2023/06/13 05:09:14;;;;;;;8.50;3.30;;;;;;;12.46;100.00;101718.56;7405098;19;20475;-44
2023/06/13 05:11:43;;;;;;;8.03;3.73;;;;;;;12.54;100.00;101710.38;7382011;19;20458;-43
2023/06/13 05:14:16;;;;;;;6.87;3.10;;;;;;;12.62;100.00;101704.69;7406485;19;20432;-44
2023/06/13 05:16:47;;;;;;;7.10;3.10;;;;;;;12.65;100.00;101710.00;7383755;19;20429;-43
2023/06/13 05:19:17;;;;;;;8.50;3.53;;;;;;;12.69;100.00;101707.66;7406203;19;20430;-42
2023/06/13 05:21:47;;;;;;;13.70;4.37;;;;;;;12.74;100.00;101713.03;7382155;19;21003;-43
2023/06/13 05:24:17;;;;;;;6.30;3.30;;;;;;;12.79;100.00;101708.97;7405756;19;20407;-44
2023/06/13 05:26:46;;;;;;;29.27;13.93;;;;;;;12.96;100.00;101706.28;7381598;19;20464;-44
2023/06/13 05:29:18;;;;;;;31.90;14.97;;;;;;;13.04;100.00;101698.88;7405174;19;20761;-44
2023/06/13 05:31:48;;;;;;;23.93;14.03;;;;;;;13.14;100.00;101695.00;7380261;19;20995;-44
2023/06/13 05:34:18;;;;;;;11.07;5.83;;;;;;;13.15;100.00;101681.22;7404871;19;20410;-43
2023/06/13 05:36:48;;;;;;;19.87;11.63;;;;;;;13.23;100.00;101678.19;7378272;19;20452;-44
2023/06/13 05:39:18;;;;;;;19.20;9.53;;;;;;;13.41;100.00;101668.56;7408401;19;20422;-43
2023/06/13 05:41:47;;;;;;;25.13;10.20;;;;;;;13.59;100.00;101674.59;7383037;19;20572;-43
2023/06/13 05:44:19;;;;;;;12.10;6.90;;;;;;;13.55;100.00;101659.75;7405803;19;20413;-43
2023/06/13 05:46:49;;;;;;;15.67;8.67;;;;;;;13.62;100.00;101654.00;7381292;19;20428;-44
2023/06/13 05:49:19;;;;;;;22.77;10.93;;;;;;;13.74;100.00;101639.81;7406431;19;20487;-42
2023/06/13 05:51:49;;;;;;;11.53;7.00;;;;;;;13.86;100.00;101642.91;7382701;19;20466;-44
2023/06/13 05:54:18;;;;;;;9.40;3.70;;;;;;;13.92;100.00;101634.50;7406689;19;20406;-44
2023/06/13 05:56:48;;;;;;;16.37;8.23;;;;;;;13.96;100.00;101618.25;7381404;19;20487;-43
2023/06/13 05:59:20;;;;;;;9.97;3.30;;;;;;;13.91;100.00;101597.28;7406433;19;20420;-42
2023/06/13 06:01:50;;;;;;;12.43;4.47;;;;;;;13.90;100.00;101598.09;7381509;19;20804;-44
2023/06/13 06:04:20;;;;;;;8.63;4.10;;;;;;;13.97;100.00;101593.16;7407234;19;20482;-42
2023/06/13 06:06:50;;;;;;;8.80;3.50;;;;;;;14.02;100.00;101591.66;7382194;19;20440;-43
2023/06/13 06:09:19;;;;;;;9.70;3.27;;;;;;;14.09;100.00;101580.69;7405564;19;20432;-41
2023/06/13 06:11:53;;;;;;;17.17;6.00;;;;;;;14.15;100.00;101567.09;7382515;19;20477;-42
2023/06/13 06:14:26;;;;;;;9.53;2.90;;;;;;;14.20;100.00;101544.78;7405294;19;20448;-43
2023/06/13 06:16:55;;;;;;;9.10;3.00;;;;;;;14.29;100.00;101531.28;7379137;19;20441;-42
2023/06/13 06:19:25;;;;;;;6.77;3.40;;;;;;;14.37;100.00;101498.75;7401266;19;20410;-43
2023/06/13 06:21:55;;;;;;;7.87;2.80;;;;;;;14.42;100.00;101480.75;7379474;19;20442;-42
2023/06/13 06:24:25;;;;;;;8.03;2.70;;;;;;;14.47;100.00;101460.13;7408509;19;20526;-44
2023/06/13 06:26:55;;;;;;;6.87;3.20;;;;;;;14.53;100.00;101435.28;7381769;19;20433;-44
2023/06/13 06:29:27;;;;;;;16.37;8.10;;;;;;;14.67;100.00;101422.78;7408092;19;20477;-44
2023/06/13 06:31:56;;;;;;;10.70;2.73;;;;;;;14.78;100.00;101399.84;7384727;19;20508;-44
2023/06/13 06:34:26;;;;;;;6.87;2.20;;;;;;;14.89;100.00;101387.22;7408114;19;20462;-43
2023/06/13 06:36:55;;;;;;;12.60;2.60;;;;;;;14.96;100.00;101373.59;7381838;19;20438;-44
2023/06/13 06:39:25;;;;;;;9.23;2.90;;;;;;;15.02;100.00;101359.06;7403938;19;20410;-43
2023/06/13 06:41:55;;;;;;;7.90;2.93;;;;;;;15.14;100.00;101349.06;7379428;19;20434;-44
2023/06/13 06:44:27;;;;;;;11.17;4.37;;;;;;;15.23;100.00;101320.75;7405096;19;20772;-42
2023/06/13 06:47:12;;;;;;;6.40;2.40;;;;;;;15.41;100.00;101319.56;7379360;19;20430;-43
2023/06/13 06:49:42;;;;;;;10.40;3.30;;;;;;;15.51;100.00;101311.22;7404646;19;20419;-42
2023/06/13 06:52:11;;;;;;;9.97;3.13;;;;;;;15.63;100.00;101317.59;7380502;19;20514;-42
2023/06/13 06:54:41;;;;;;;8.27;2.90;;;;;;;15.66;100.00;101315.97;7405350;19;20480;-43
2023/06/13 06:57:10;;;;;;;12.60;4.20;;;;;;;15.76;100.00;101314.56;7380030;19;20449;-44
2023/06/13 06:59:42;;;;;;;12.10;3.53;;;;;;;15.92;100.00;101317.63;7405686;19;20444;-44
2023/06/13 07:02:12;;;;;;;7.03;2.70;;;;;;;15.95;100.00;101316.81;7381792;19;20535;-42
2023/06/13 07:04:42;;;;;;;14.33;5.00;;;;;;;16.03;100.00;101317.91;7404899;19;20419;-44
2023/06/13 07:07:11;;;;;;;9.70;4.83;;;;;;;16.08;100.00;101323.25;7380057;19;21083;-44
2023/06/13 07:09:41;;;;;;;5.97;2.17;;;;;;;16.11;100.00;101328.53;7404056;19;20420;-43
2023/06/13 07:12:11;;;;;;;7.77;3.30;;;;;;;16.09;100.00;101336.31;7381505;19;21030;-43
2023/06/13 07:14:43;;;;;;;7.20;2.53;;;;;;;16.23;100.00;101338.41;7404279;19;20414;-44
2023/06/13 07:17:12;;;;;;;8.07;2.87;;;;;;;16.41;100.00;101343.25;7373350;19;20431;-44
2023/06/13 07:19:42;;;;;;;10.67;5.10;;;;;;;16.55;100.00;101341.88;7402890;19;20416;-44
2023/06/13 07:22:12;;;;;;;9.30;2.90;;;;;;;16.66;100.00;101351.72;7378532;19;21015;-44
2023/06/13 07:24:41;;;;;;;6.53;2.40;;;;;;;16.70;100.00;101367.47;7405848;19;20425;-44
2023/06/13 07:27:11;;;;;;;9.90;3.30;;;;;;;16.80;100.00;101384.22;7381456;19;20470;-44
2023/06/13 07:29:43;;;;;;;10.87;5.03;;;;;;;16.88;100.00;101392.25;7410172;19;20429;-41
2023/06/13 07:32:13;;;;;;;14.37;6.50;;;;;;;16.95;100.00;101399.38;7386418;19;21022;-40
2023/06/13 07:34:42;;;;;;;10.40;3.20;;;;;;;16.93;100.00;101411.50;7409564;19;20419;-43
2023/06/13 07:37:15;;;;;;;11.53;5.27;;;;;;;17.06;100.00;101412.69;7384656;19;20488;-40
2023/06/13 07:39:45;;;;;;;8.80;3.70;;;;;;;17.13;100.00;101430.25;7411450;19;20764;-41
2023/06/13 07:42:14;;;;;;;6.37;3.40;;;;;;;17.20;100.00;101440.84;7385654;19;20454;-43
2023/06/13 07:44:46;;;;;;;7.57;3.50;;;;;;;17.25;100.00;101457.47;7412887;19;20492;-42
2023/06/13 07:47:16;;;;;;;19.67;6.23;;;;;;;17.34;100.00;101465.53;7385554;19;20459;-43
2023/06/13 07:49:46;;;;;;;6.80;2.83;;;;;;;17.49;100.00;101472.00;7410989;19;20424;-42
2023/06/13 07:52:15;;;;;;;14.83;7.20;;;;;;;17.42;100.00;101463.13;7386332;19;20446;-43
2023/06/13 07:54:45;;;;;;;16.13;7.40;;;;;;;17.55;100.00;101469.53;7411540;19;20404;-43
2023/06/13 07:57:14;;;;;;;10.70;4.60;;;;;;;17.68;100.00;101483.72;7384569;19;20431;-43
2023/06/13 08:00:15;;;;;;;7.00;3.20;;;;;;;17.81;100.00;101483.16;7413473;19;20491;-41
2023/06/13 08:02:46;;;;;;;7.90;2.53;;;;;;;17.91;100.00;101501.69;7386227;19;20443;-43
2023/06/13 08:05:17;;;;;;;12.23;3.40;;;;;;;18.06;100.00;101515.09;7408737;19;20415;-42
2023/06/13 08:07:46;;;;;;;18.60;6.70;;;;;;;18.15;100.00;101519.66;7382290;19;20562;-43
2023/06/13 08:10:16;;;;;;;8.70;2.53;;;;;;;18.03;100.00;101556.78;7404961;19;20417;-42
2023/06/13 08:12:46;;;;;;;16.00;6.67;;;;;;;18.10;100.00;101565.66;7381587;19;20463;-42
2023/06/13 08:15:18;;;;;;;15.90;6.90;;;;;;;18.21;100.00;101566.78;7405080;19;20424;-41
2023/06/13 08:17:47;;;;;;;34.90;18.37;;;;;;;18.40;100.00;101562.00;7380799;19;20488;-43
2023/06/13 08:20:17;;;;;;;7.87;3.00;;;;;;;18.47;100.00;101574.34;7406825;19;20415;-43
2023/06/13 08:22:47;;;;;;;7.67;3.67;;;;;;;18.53;100.00;101578.81;7383126;19;20490;-42
2023/06/13 08:25:16;;;;;;;7.20;3.47;;;;;;;18.60;100.00;101570.25;7405517;19;20427;-43
2023/06/13 08:27:46;;;;;;;9.57;3.33;;;;;;;18.72;100.00;101569.63;7380781;19;20451;-44
2023/06/13 08:30:19;;;;;;;8.90;2.73;;;;;;;18.89;100.00;101577.84;7408306;19;20408;-44
2023/06/13 08:32:52;;;;;;;8.50;3.60;;;;;;;18.93;100.00;101636.31;7382425;19;20934;-44
2023/06/13 08:35:22;;;;;;;9.80;2.80;;;;;;;18.96;100.00;101628.50;7408633;19;20438;-42
2023/06/13 08:37:52;;;;;;;11.30;3.00;;;;;;;19.00;100.00;101638.19;7381156;19;20540;-43
2023/06/13 08:40:22;;;;;;;10.53;3.23;;;;;;;19.14;100.00;101645.47;7404864;19;20423;-44
2023/06/13 08:42:52;;;;;;;5.80;2.83;;;;;;;19.21;100.00;101652.59;7380987;19;20498;-44
2023/06/13 08:45:25;;;;;;;11.93;3.00;;;;;;;19.26;100.00;101650.94;7405106;19;20436;-44
2023/06/13 08:47:55;;;;;;;15.27;3.40;;;;;;;19.44;100.00;101654.78;7381365;19;21035;-44
2023/06/13 08:50:26;;;;;;;7.20;2.43;;;;;;;19.54;100.00;101661.06;7407193;19;20418;-43
2023/06/13 08:52:57;;;;;;;15.53;3.70;;;;;;;19.62;100.00;101667.31;7382301;19;20448;-44
2023/06/13 08:55:27;;;;;;;9.87;3.57;;;;;;;19.74;100.00;101669.28;7402503;19;20883;-43
2023/06/13 08:58:01;;;;;;;8.07;3.07;;;;;;;19.71;100.00;101677.09;7382909;19;20464;-44
2023/06/13 09:00:35;;;;;;;6.73;3.00;;;;;;;19.81;100.00;101671.16;7405132;19;20407;-43
2023/06/13 09:03:08;;;;;;;10.20;2.97;;;;;;;19.96;100.00;101667.06;7381618;19;20474;-43
2023/06/13 09:05:39;;;;;;;24.17;14.60;;;;;;;20.06;100.00;101674.22;7382475;19;20403;-44
2023/06/13 09:08:09;;;;;;;17.50;4.50;;;;;;;20.09;100.00;101674.28;7402811;19;20399;-44
2023/06/13 09:10:59;;;;;;;8.70;3.37;;;;;;;20.22;100.00;101683.25;7378899;19;20399;-44
2023/06/13 09:13:30;;;;;;;12.40;3.27;;;;;;;20.27;100.00;101669.31;7403474;19;20515;-44
2023/06/13 09:16:02;;;;;;;9.53;3.80;;;;;;;20.35;100.00;101671.19;7380180;19;20395;-44
2023/06/13 09:18:35;;;;;;;5.83;2.63;;;;;;;20.33;100.00;101670.31;7404631;19;20414;-44
2023/06/13 09:21:05;;;;;;;7.30;3.03;;;;;;;20.41;100.00;101669.53;7380282;19;20471;-44
2023/06/13 09:23:35;;;;;;;6.17;3.10;;;;;;;20.46;100.00;101671.34;7404418;19;20410;-43
2023/06/13 09:26:05;;;;;;;7.47;3.10;;;;;;;20.37;100.00;101656.38;7379790;19;20398;-41
2023/06/13 09:28:40;;;;;;;6.17;2.70;;;;;;;20.52;100.00;101649.63;7396304;19;20434;-40
2023/06/13 09:31:13;;;;;;;7.63;3.13;;;;;;;20.67;100.00;101661.19;7374461;19;21285;-43
2023/06/13 09:33:47;;;;;;;13.80;2.40;;;;;;;20.83;100.00;101647.44;7407564;19;20523;-44
2023/06/13 09:36:18;;;;;;;6.67;2.47;;;;;;;20.81;100.00;101661.38;7380947;19;20419;-45
2023/06/13 09:38:48;;;;;;;7.87;2.80;;;;;;;20.81;100.00;101662.25;7401307;19;20403;-44
2023/06/13 09:41:17;;;;;;;7.47;3.13;;;;;;;20.92;100.00;101665.06;7379979;19;20431;-44
2023/06/13 09:43:47;;;;;;;8.03;3.27;;;;;;;20.97;100.00;101657.25;7402438;19;20418;-44
2023/06/13 09:46:23;;;;;;;13.70;3.73;;;;;;;21.07;100.00;101659.09;7377182;19;20440;-44
2023/06/13 09:48:53;;;;;;;6.50;2.93;;;;;;;21.24;100.00;101659.31;7402378;19;20423;-44
2023/06/13 09:51:23;;;;;;;8.33;3.00;;;;;;;21.34;100.00;101660.31;7375625;19;20450;-44
2023/06/13 09:53:53;;;;;;;13.13;3.17;;;;;;;21.37;100.00;101647.22;7401406;19;20515;-44
2023/06/13 09:56:22;;;;;;;9.53;3.37;;;;;;;21.40;100.00;101641.13;7373092;19;20472;-43
2023/06/13 09:58:55;;;;;;;10.17;3.47;;;;;;;21.54;100.00;101631.63;7402905;19;20441;-44
2023/06/13 10:01:28;;;;;;;24.87;13.30;;;;;;;21.55;100.00;101622.03;7375959;19;20491;-45
2023/06/13 10:03:58;;;;;;;11.27;4.33;;;;;;;21.71;100.00;101599.44;7401995;19;20415;-44
2023/06/13 10:06:29;;;;;;;10.80;3.43;;;;;;;21.76;100.00;101578.47;7379756;19;20447;-44
2023/06/13 10:08:58;;;;;;;7.80;3.70;;;;;;;21.89;100.00;101593.44;7403967;19;20404;-44
2023/06/13 10:11:34;;;;;;;9.67;3.10;;;;;;;21.89;100.00;101593.44;7380216;19;20534;-44
2023/06/13 10:14:08;;;;;;;14.67;7.67;;;;;;;21.98;100.00;101592.66;7403966;19;20419;-44
2023/06/13 10:16:41;;;;;;;7.27;3.63;;;;;;;22.14;100.00;101591.00;7379509;19;21030;-44
2023/06/13 10:19:32;;;;;;;17.10;8.40;;;;;;;22.05;100.00;101585.69;7406809;19;20793;-43
2023/06/13 10:22:02;;;;;;;17.07;5.03;;;;;;;22.22;100.00;101577.94;7380154;19;20471;-44
2023/06/13 10:24:31;;;;;;;9.30;2.97;;;;;;;22.30;100.00;101567.47;7405038;19;20415;-46
2023/06/13 10:27:01;;;;;;;15.13;5.37;;;;;;;22.22;100.00;101576.19;7380590;19;20451;-44
2023/06/13 10:29:57;;;;;;;10.20;4.80;;;;;;;22.35;100.00;101578.91;7406134;19;20400;-44
2023/06/13 10:32:45;;;;;;;9.40;3.43;;;;;;;22.70;100.00;101570.31;7381464;19;20903;-44
2023/06/13 10:35:48;;;;;;;6.40;3.50;;;;;;;22.82;100.00;101555.47;7407411;19;20411;-44
2023/06/13 10:38:57;;;;;;;28.90;14.67;;;;;;;22.70;100.00;101562.41;7383500;19;20462;-42
2023/06/13 10:41:40;;;;;;;9.97;4.87;;;;;;;22.60;100.00;101581.69;7378899;19;20423;-44
2023/06/13 10:44:13;;;;;;;15.60;9.10;;;;;;;22.74;100.00;101579.09;7405505;19;20716;-44
2023/06/13 10:46:43;;;;;;;11.50;4.97;;;;;;;22.76;100.00;101572.97;7381393;19;20468;-45
2023/06/13 10:49:18;;;;;;;7.50;3.73;;;;;;;22.85;100.00;101555.44;7407361;19;20909;-44
2023/06/13 10:51:48;;;;;;;10.67;3.93;;;;;;;22.87;100.00;101565.09;7382664;19;20786;-44
2023/06/13 10:54:18;;;;;;;10.07;4.90;;;;;;;22.94;100.00;101560.75;7405179;19;20407;-44
2023/06/13 10:56:47;;;;;;;11.83;3.70;;;;;;;23.14;100.00;101560.81;7379751;19;20427;-45
2023/06/13 10:59:19;;;;;;;8.70;3.50;;;;;;;23.17;100.00;101560.81;7405894;19;20419;-44
2023/06/13 11:01:48;;;;;;;12.17;2.70;;;;;;;23.40;100.00;101538.94;7385276;19;20443;-44
2023/06/13 11:04:22;;;;;;;10.23;3.37;;;;;;;23.54;100.00;101541.56;7411841;19;20399;-45
2023/06/13 11:06:53;;;;;;;10.30;5.07;;;;;;;23.57;100.00;101530.16;7387839;19;20999;-44
2023/06/13 11:09:24;;;;;;;8.60;3.70;;;;;;;23.66;100.00;101555.59;7414066;19;20432;-45
2023/06/13 11:11:55;;;;;;;13.87;5.23;;;;;;;23.64;100.00;101547.69;7388855;19;20442;-44
2023/06/13 11:14:27;;;;;;;9.53;3.63;;;;;;;23.64;100.00;101552.09;7411063;19;20415;-44
2023/06/13 11:16:57;;;;;;;7.93;4.60;;;;;;;23.05;100.00;101552.88;7387245;19;20498;-44
2023/06/13 11:19:30;;;;;;;10.63;4.20;;;;;;;23.18;100.00;101549.41;7411488;19;20407;-44
2023/06/13 11:22:14;;;;;;;6.70;3.27;;;;;;;23.44;100.00;101563.50;7388247;19;20894;-44
2023/06/13 11:24:44;;;;;;;7.43;3.80;;;;;;;23.52;100.00;101535.41;7411901;19;20428;-44
2023/06/13 11:27:16;;;;;;;8.50;3.93;;;;;;;23.31;100.00;101558.25;7388235;19;20439;-44
2023/06/13 11:29:46;;;;;;;7.60;3.50;;;;;;;23.31;100.00;101555.59;7413535;19;20470;-44
2023/06/13 11:32:16;;;;;;;8.10;3.37;;;;;;;23.17;100.00;101562.56;7388344;19;20419;-44
2023/06/13 11:34:50;;;;;;;6.83;3.20;;;;;;;23.63;100.00;101529.28;7414739;19;20407;-44